NPT2205 LYTV-EGCC
Flight info
| Callsign | NPT2205 |
|---|---|
| Flight time | N/A |
| Altitude | 34000 |
| Route | NIK DCT GACMO DCT EMKES DCT KOMAR DCT PIXAL DCT RENKA DCT RUDNO DCT MASEK DCT TIVUN DCT TORNU DCT BATAK DCT GALSO Q63 ERING L179 LAM UN57 WELIN T420 ELVOS |
| Aircraft | A321/M-SDE3FGHIRWY/LB1 |
Departure
| Time | 2026-05-04 16:33 |
|---|---|
| Airport | Tivat Airport (LYTV) |
Arrival
| Time | N/A |
|---|---|
| Airport | Manchester Airport (EGCC) |
| Time | Latitude | Longitude | Altitude | Speed | Heading |
|---|---|---|---|---|---|
| 2026-05-04 16:02 | 42.41211 | 18.71698 | 27 ft | 0 kts | 169° |
| 2026-05-04 16:25 | 42.41206 | 18.71699 | 28 ft | 3 kts | 168° |
| 2026-05-04 16:26 | 42.41011 | 18.71856 | 27 ft | 4 kts | 183° |
| 2026-05-04 16:26 | 42.40939 | 18.71793 | 28 ft | 5 kts | 195° |
| 2026-05-04 16:27 | 42.40840 | 18.71887 | 26 ft | 15 kts | 138° |
| 2026-05-04 16:28 | 42.40481 | 18.72313 | 26 ft | 26 kts | 139° |
| 2026-05-04 16:28 | 42.40078 | 18.72790 | 26 ft | 26 kts | 138° |
| 2026-05-04 16:29 | 42.39632 | 18.73305 | 25 ft | 8 kts | 189° |
| 2026-05-04 16:30 | 42.39697 | 18.73239 | 25 ft | 0 kts | 320° |
| 2026-05-04 16:31 | 42.39698 | 18.73238 | 25 ft | 0 kts | 320° |
| 2026-05-04 16:32 | 42.40415 | 18.72389 | 27 ft | 139 kts | 319° |
| 2026-05-04 16:33 | 42.42087 | 18.70212 | 1147 ft | 170 kts | 300° |
| 2026-05-04 16:33 | 42.41479 | 18.67432 | 2115 ft | 179 kts | 213° |
| 2026-05-04 16:34 | 42.39268 | 18.65291 | 2591 ft | 206 kts | 219° |
| 2026-05-04 16:34 | 42.38126 | 18.64092 | 3044 ft | 208 kts | 219° |
| 2026-05-04 16:35 | 42.34590 | 18.60571 | 4505 ft | 214 kts | 199° |
| 2026-05-04 16:35 | 42.31132 | 18.63455 | 5872 ft | 222 kts | 112° |
| 2026-05-04 16:36 | 42.30600 | 18.65414 | 6348 ft | 222 kts | 98° |
| 2026-05-04 16:36 | 42.31589 | 18.69152 | 7059 ft | 230 kts | 38° |
| 2026-05-04 16:37 | 42.34780 | 18.70977 | 7300 ft | 269 kts | 19° |
| 2026-05-04 16:37 | 42.36545 | 18.71837 | 7747 ft | 276 kts | 20° |
| 2026-05-04 16:37 | 42.40177 | 18.73625 | 8981 ft | 279 kts | 20° |
| 2026-05-04 16:38 | 42.43849 | 18.75453 | 10001 ft | 284 kts | 20° |
| 2026-05-04 16:39 | 42.49412 | 18.78235 | 11738 ft | 285 kts | 20° |
| 2026-05-04 16:39 | 42.53149 | 18.80102 | 12889 ft | 288 kts | 20° |
| 2026-05-04 16:40 | 42.56934 | 18.82000 | 13953 ft | 293 kts | 20° |
| 2026-05-04 16:40 | 42.60917 | 18.83996 | 14332 ft | 320 kts | 20° |
| 2026-05-04 16:41 | 42.65273 | 18.86181 | 14569 ft | 347 kts | 20° |
| 2026-05-04 16:41 | 42.72540 | 18.89775 | 15058 ft | 380 kts | 15° |
| 2026-05-04 16:42 | 42.80357 | 18.89124 | 16452 ft | 391 kts | 339° |
| 2026-05-04 16:43 | 42.84969 | 18.85155 | 17463 ft | 399 kts | 325° |
| 2026-05-04 16:43 | 42.89272 | 18.80861 | 18450 ft | 403 kts | 325° |
| 2026-05-04 16:43 | 42.91545 | 18.78598 | 18841 ft | 405 kts | 326° |
| 2026-05-04 16:44 | 43.00736 | 18.69413 | 20149 ft | 413 kts | 325° |
| 2026-05-04 16:45 | 43.05390 | 18.64740 | 20821 ft | 416 kts | 325° |
| 2026-05-04 16:46 | 43.12442 | 18.57671 | 21763 ft | 422 kts | 325° |
| 2026-05-04 16:46 | 43.17188 | 18.52868 | 22382 ft | 425 kts | 324° |
| 2026-05-04 16:47 | 43.21926 | 18.47953 | 22993 ft | 429 kts | 324° |
| 2026-05-04 16:47 | 43.26691 | 18.42984 | 23585 ft | 432 kts | 324° |
| 2026-05-04 16:48 | 43.33936 | 18.35472 | 24342 ft | 437 kts | 323° |
| 2026-05-04 16:48 | 43.36369 | 18.32954 | 24599 ft | 438 kts | 323° |
| 2026-05-04 16:49 | 43.41213 | 18.27916 | 25120 ft | 440 kts | 323° |
| 2026-05-04 16:49 | 43.46102 | 18.22805 | 25583 ft | 443 kts | 323° |
| 2026-05-04 16:50 | 43.51011 | 18.17652 | 26022 ft | 445 kts | 323° |
| 2026-05-04 16:50 | 43.55951 | 18.12470 | 26370 ft | 447 kts | 323° |
| 2026-05-04 16:51 | 43.60908 | 18.07268 | 26826 ft | 447 kts | 323° |
| 2026-05-04 16:51 | 43.62580 | 18.05512 | 27020 ft | 446 kts | 323° |
| 2026-05-04 16:51 | 43.68296 | 17.99501 | 27676 ft | 443 kts | 323° |
| 2026-05-04 16:52 | 43.72364 | 17.95207 | 28164 ft | 441 kts | 323° |
| 2026-05-04 16:52 | 43.74801 | 17.92628 | 28445 ft | 440 kts | 323° |
| 2026-05-04 16:53 | 43.79650 | 17.87481 | 28967 ft | 439 kts | 323° |
| 2026-05-04 16:53 | 43.87105 | 17.80177 | 29764 ft | 437 kts | 328° |
| 2026-05-04 16:54 | 43.89675 | 17.77941 | 30043 ft | 436 kts | 328° |
| 2026-05-04 16:55 | 43.99894 | 17.68976 | 30905 ft | 433 kts | 327° |
| 2026-05-04 16:55 | 44.04919 | 17.64405 | 31334 ft | 431 kts | 327° |
| 2026-05-04 16:56 | 44.09951 | 17.59822 | 31702 ft | 431 kts | 327° |
| 2026-05-04 16:56 | 44.17470 | 17.52977 | 32345 ft | 429 kts | 327° |
| 2026-05-04 16:57 | 44.19960 | 17.50708 | 32571 ft | 428 kts | 327° |
| 2026-05-04 16:57 | 44.24938 | 17.46163 | 32966 ft | 427 kts | 327° |
| 2026-05-04 16:58 | 44.32344 | 17.39375 | 33508 ft | 426 kts | 327° |
| 2026-05-04 16:58 | 44.34821 | 17.37107 | 33711 ft | 425 kts | 327° |
| 2026-05-04 16:59 | 44.39756 | 17.32579 | 34035 ft | 425 kts | 327° |
| 2026-05-04 17:00 | 44.49684 | 17.23427 | 34048 ft | 427 kts | 327° |
| 2026-05-04 17:01 | 44.62109 | 17.11920 | 34045 ft | 429 kts | 326° |
| 2026-05-04 17:02 | 44.72086 | 17.02640 | 34049 ft | 431 kts | 326° |
| 2026-05-04 17:03 | 44.79584 | 16.95649 | 34047 ft | 431 kts | 326° |
| 2026-05-04 17:03 | 44.87091 | 16.88622 | 34046 ft | 432 kts | 326° |
| 2026-05-04 17:04 | 44.97106 | 16.79197 | 34054 ft | 433 kts | 326° |
| 2026-05-04 17:05 | 45.07110 | 16.69763 | 34044 ft | 434 kts | 325° |
| 2026-05-04 17:06 | 45.14631 | 16.62607 | 34057 ft | 434 kts | 325° |
| 2026-05-04 17:07 | 45.21312 | 16.56268 | 34054 ft | 434 kts | 325° |
| 2026-05-04 17:07 | 45.27287 | 16.50915 | 34054 ft | 435 kts | 329° |
| 2026-05-04 17:08 | 45.35154 | 16.44467 | 34053 ft | 435 kts | 328° |
| 2026-05-04 17:09 | 45.40379 | 16.40098 | 34049 ft | 436 kts | 328° |
| 2026-05-04 17:09 | 45.45587 | 16.35665 | 34050 ft | 436 kts | 328° |
| 2026-05-04 17:10 | 45.58605 | 16.24533 | 34048 ft | 437 kts | 328° |
| 2026-05-04 17:11 | 45.63816 | 16.20071 | 34045 ft | 437 kts | 328° |
| 2026-05-04 17:12 | 45.71610 | 16.13398 | 34026 ft | 437 kts | 328° |
| 2026-05-04 17:13 | 45.84659 | 16.02144 | 34020 ft | 438 kts | 328° |
| 2026-05-04 17:14 | 45.95101 | 15.93098 | 34038 ft | 438 kts | 328° |
| 2026-05-04 17:15 | 46.02942 | 15.86275 | 34035 ft | 440 kts | 327° |
| 2026-05-04 17:16 | 46.13410 | 15.77134 | 34044 ft | 440 kts | 327° |
| 2026-05-04 17:17 | 46.23883 | 15.67962 | 34033 ft | 440 kts | 327° |
| 2026-05-04 17:18 | 46.34349 | 15.58725 | 34039 ft | 440 kts | 327° |
| 2026-05-04 17:19 | 46.44760 | 15.49514 | 34029 ft | 439 kts | 327° |
| 2026-05-04 17:20 | 46.55184 | 15.40252 | 34029 ft | 439 kts | 327° |